Time;durP1;ratioP1;P1;durP2;ratioP2;P2;SDS_P1;SDS_P2;PMS_P1;PMS_P2;Temp;Humidity;BMP_temperature;BMP_pressure;BME280_temperature;BME280_humidity;BME280_pressure;Samples;Min_cycle;Max_cycle;Signal;HPM_P1;HPM_P2
2021/03/29 00:01:56;;;;;;;1.83;1.38;;;3.60;95.80;;;;;;5073406;28;20169;-73
2021/03/29 00:04:22;;;;;;;1.15;1.00;;;3.70;95.70;;;;;;5073522;28;20173;-71
2021/03/29 00:06:49;;;;;;;3.17;1.40;;;3.70;95.60;;;;;;5073313;28;20238;-72
2021/03/29 00:09:17;;;;;;;2.00;1.30;;;3.60;95.40;;;;;;5073031;28;20166;-72
2021/03/29 00:11:43;;;;;;;0.80;0.80;;;3.50;95.50;;;;;;5073304;28;20165;-71
2021/03/29 00:14:09;;;;;;;1.58;1.25;;;3.50;95.60;;;;;;5073366;28;20180;-72
2021/03/29 00:16:37;;;;;;;2.47;1.33;;;3.50;95.80;;;;;;5073270;28;20177;-71
2021/03/29 00:19:09;;;;;;;1.67;1.20;;;3.60;95.90;;;;;;5072960;28;20936;-72
2021/03/29 00:21:36;;;;;;;0.70;0.70;;;3.60;95.40;;;;;;5074703;28;20556;-72
2021/03/29 00:24:02;;;;;;;2.67;1.30;;;3.70;95.50;;;;;;5077169;28;20215;-72
2021/03/29 00:26:28;;;;;;;3.63;1.33;;;3.70;95.20;;;;;;5077199;28;20243;-71
2021/03/29 00:28:54;;;;;;;1.30;1.20;;;3.80;95.50;;;;;;5077039;28;20173;-71
2021/03/29 00:31:19;;;;;;;2.50;1.30;;;3.70;95.50;;;;;;5077025;28;20184;-71
2021/03/29 00:33:45;;;;;;;1.73;0.80;;;3.70;95.40;;;;;;5077155;28;20192;-73
2021/03/29 00:36:12;;;;;;;1.37;0.80;;;3.70;95.40;;;;;;5077056;28;20268;-71
2021/03/29 00:38:39;;;;;;;1.40;1.30;;;3.70;95.40;;;;;;5077168;28;20407;-72
2021/03/29 00:41:11;;;;;;;1.20;1.10;;;3.50;95.70;;;;;;5075765;28;20722;-71
2021/03/29 00:43:41;;;;;;;0.85;0.85;;;3.50;96.20;;;;;;5076690;28;20284;-71
2021/03/29 00:46:08;;;;;;;0.90;0.90;;;3.50;96.30;;;;;;5077332;28;20204;-72
2021/03/29 00:48:35;;;;;;;1.20;1.20;;;3.60;96.30;;;;;;5076772;28;20169;-71
2021/03/29 00:51:22;;;;;;;0.80;0.80;;;3.60;96.40;;;;;;5076642;28;20189;-72
2021/03/29 00:53:55;;;;;;;1.05;0.80;;;3.40;96.50;;;;;;5076526;28;20207;-71
2021/03/29 00:56:22;;;;;;;2.78;1.30;;;3.20;96.90;;;;;;5075238;28;20646;-71
2021/03/29 00:58:50;;;;;;;1.20;1.10;;;3.10;97.30;;;;;;5076385;28;20207;-71
2021/03/29 01:01:26;;;;;;;2.45;1.55;;;3.00;97.50;;;;;;5076695;28;20264;-71
2021/03/29 01:04:01;;;;;;;1.63;1.52;;;3.20;97.10;;;;;;5076510;28;20185;-72
2021/03/29 01:06:40;;;;;;;1.95;1.05;;;3.30;96.60;;;;;;5075212;28;20261;-72
2021/03/29 01:09:09;;;;;;;1.15;1.02;;;3.40;96.40;;;;;;5076388;28;20200;-72
2021/03/29 01:11:39;;;;;;;2.33;1.45;;;3.60;96.20;;;;;;5076529;28;20165;-72
2021/03/29 01:14:11;;;;;;;0.90;0.90;;;3.70;96.10;;;;;;5076365;28;20170;-72
2021/03/29 01:16:51;;;;;;;4.55;1.40;;;3.60;96.30;;;;;;5076463;28;20177;-72
2021/03/29 01:19:45;;;;;;;1.58;1.42;;;3.60;96.60;;;;;;5076244;28;20169;-72
2021/03/29 01:22:12;;;;;;;3.60;1.40;;;3.50;96.50;;;;;;5076007;28;20201;-72
2021/03/29 01:24:59;;;;;;;1.75;1.40;;;3.40;96.60;;;;;;5076089;28;20174;-72
2021/03/29 01:27:31;;;;;;;2.75;1.00;;;3.30;96.90;;;;;;5076137;28;20237;-71
2021/03/29 01:29:57;;;;;;;2.05;1.00;;;3.20;97.00;;;;;;5075969;28;20212;-72
2021/03/29 01:32:24;;;;;;;1.67;1.10;;;3.30;97.10;;;;;;5075680;28;20209;-72
2021/03/29 01:34:51;;;;;;;1.30;1.20;;;3.40;97.10;;;;;;5075728;28;20177;-72
2021/03/29 01:37:17;;;;;;;1.15;1.10;;;3.30;97.00;;;;;;5074674;28;20702;-72
2021/03/29 01:39:44;;;;;;;1.40;1.20;;;3.30;97.00;;;;;;5075620;28;20176;-71
2021/03/29 01:42:12;;;;;;;1.58;0.80;;;3.30;97.00;;;;;;5076094;28;20189;-72
2021/03/29 01:44:38;;;;;;;2.45;1.02;;;3.40;97.10;;;;;;5075713;28;20507;-73
2021/03/29 01:47:06;;;;;;;3.85;1.40;;;3.40;96.90;;;;;;5075666;28;20207;-71
2021/03/29 01:49:33;;;;;;;3.28;1.20;;;3.50;96.90;;;;;;5075426;28;20177;-72
2021/03/29 01:51:59;;;;;;;2.50;1.92;;;3.50;96.90;;;;;;5075466;28;20558;-71
2021/03/29 01:54:26;;;;;;;3.63;1.73;;;3.50;96.90;;;;;;5075454;28;20166;-71
2021/03/29 01:56:52;;;;;;;0.98;0.90;;;3.50;96.90;;;;;;5075438;28;20169;-72
2021/03/29 01:59:18;;;;;;;2.20;1.60;;;3.50;96.70;;;;;;5075278;28;20253;-73
2021/03/29 02:01:44;;;;;;;1.77;1.63;;;3.60;96.70;;;;;;5075674;28;20418;-72
2021/03/29 02:04:11;;;;;;;1.63;1.53;;;3.60;96.80;;;;;;5075354;28;20230;-72
2021/03/29 02:06:37;;;;;;;2.15;1.60;;;3.70;96.90;;;;;;5075320;28;20189;-72
2021/03/29 02:09:06;;;;;;;2.83;1.13;;;3.60;96.90;;;;;;5075179;28;20174;-72
2021/03/29 02:11:32;;;;;;;2.92;1.63;;;3.50;97.10;;;;;;5075326;28;20173;-72
2021/03/29 02:13:59;;;;;;;1.20;1.10;;;3.30;97.20;;;;;;5075013;28;20204;-71
2021/03/29 02:16:28;;;;;;;1.05;0.93;;;3.30;97.60;;;;;;5075311;28;20538;-72
2021/03/29 02:18:57;;;;;;;2.30;1.75;;;3.30;97.60;;;;;;5073578;28;20673;-73
2021/03/29 02:21:37;;;;;;;1.98;1.50;;;3.20;97.50;;;;;;5074979;28;20284;-71
2021/03/29 02:24:04;;;;;;;3.08;2.15;;;3.30;97.40;;;;;;5074867;28;20180;-72
2021/03/29 02:26:36;;;;;;;2.17;1.40;;;3.40;97.20;;;;;;5074905;28;20200;-72
2021/03/29 02:29:03;;;;;;;1.60;1.50;;;3.40;97.10;;;;;;5074865;28;20215;-72
2021/03/29 02:31:30;;;;;;;1.40;1.30;;;3.40;97.10;;;;;;5074907;28;20173;-73
2021/03/29 02:33:58;;;;;;;1.92;1.65;;;3.40;96.90;;;;;;5074628;28;20189;-71
2021/03/29 02:36:25;;;;;;;1.88;1.20;;;3.40;97.10;;;;;;5074695;28;20173;-72
2021/03/29 02:38:51;;;;;;;1.35;1.10;;;3.40;97.30;;;;;;5074492;28;20170;-71
2021/03/29 02:41:22;;;;;;;1.30;1.30;;;3.50;97.20;;;;;;5074654;28;20169;-72
2021/03/29 02:43:48;;;;;;;2.45;1.17;;;3.50;97.10;;;;;;5073919;28;20546;-71
2021/03/29 02:46:15;;;;;;;1.60;1.15;;;3.50;97.20;;;;;;5074627;28;20201;-72
2021/03/29 02:48:45;;;;;;;4.45;1.30;;;3.60;97.40;;;;;;5074480;28;20207;-72
2021/03/29 02:51:14;;;;;;;1.25;1.15;;;3.60;97.50;;;;;;5074397;28;20172;-72
2021/03/29 02:53:48;;;;;;;2.53;1.30;;;3.40;97.50;;;;;;5074256;28;20182;-71
2021/03/29 02:56:20;;;;;;;1.58;1.30;;;3.40;97.80;;;;;;5074656;28;20173;-71
2021/03/29 02:58:52;;;;;;;1.80;1.00;;;3.40;98.00;;;;;;5074317;28;20175;-71
2021/03/29 03:01:18;;;;;;;1.50;1.40;;;3.30;97.90;;;;;;5074441;28;20168;-71
2021/03/29 03:03:45;;;;;;;1.40;1.30;;;3.30;98.10;;;;;;5074109;28;20625;-71
2021/03/29 03:06:12;;;;;;;1.20;1.08;;;3.00;98.00;;;;;;5074146;28;20197;-73
2021/03/29 03:08:39;;;;;;;1.20;1.08;;;2.90;98.50;;;;;;5074096;28;20169;-71
2021/03/29 03:11:12;;;;;;;1.33;1.25;;;3.10;98.80;;;;;;5074120;28;20196;-71
2021/03/29 03:13:42;;;;;;;1.45;1.35;;;3.10;98.50;;;;;;5073778;28;20197;-72
2021/03/29 03:16:07;;;;;;;1.10;1.00;;;3.10;98.30;;;;;;5074102;28;20173;-71
2021/03/29 03:18:33;;;;;;;1.93;1.17;;;3.30;98.30;;;;;;5073938;28;20186;-71
2021/03/29 03:20:59;;;;;;;2.00;1.80;;;3.30;98.20;;;;;;5073712;28;20193;-72
2021/03/29 03:23:25;;;;;;;1.83;1.50;;;3.30;98.10;;;;;;5073880;28;20197;-72
2021/03/29 03:25:52;;;;;;;2.07;1.47;;;3.40;97.80;;;;;;5073876;28;20589;-72
2021/03/29 03:28:22;;;;;;;3.38;1.45;;;3.40;97.60;;;;;;5073899;28;20416;-71
2021/03/29 03:30:53;;;;;;;1.60;1.50;;;3.30;97.50;;;;;;5073553;28;20166;-72
2021/03/29 03:33:21;;;;;;;1.05;1.05;;;3.20;97.70;;;;;;5073753;28;20563;-72
2021/03/29 03:35:47;;;;;;;1.13;1.13;;;3.10;97.90;;;;;;5073556;28;20170;-71
2021/03/29 03:38:23;;;;;;;3.55;1.70;;;3.20;98.10;;;;;;5073871;28;20549;-72
2021/03/29 03:41:12;;;;;;;1.58;1.40;;;3.20;97.80;;;;;;5073439;28;20181;-71
2021/03/29 03:43:46;;;;;;;1.20;1.10;;;3.20;97.60;;;;;;5073653;28;20193;-71
2021/03/29 03:46:13;;;;;;;1.63;1.50;;;3.20;97.80;;;;;;5073598;28;20226;-72
2021/03/29 03:48:39;;;;;;;2.58;1.60;;;3.20;97.80;;;;;;5073586;28;20199;-71
2021/03/29 03:51:06;;;;;;;1.80;1.70;;;3.10;97.60;;;;;;5073581;28;20180;-72
2021/03/29 03:53:34;;;;;;;3.00;1.40;;;3.10;97.80;;;;;;5073386;28;20558;-72
2021/03/29 03:56:00;;;;;;;2.45;1.20;;;3.00;97.80;;;;;;5072582;28;20180;-72
2021/03/29 03:58:27;;;;;;;1.10;1.05;;;3.10;98.20;;;;;;5073461;28;20174;-72
2021/03/29 04:00:53;;;;;;;3.25;1.40;;;3.20;97.80;;;;;;5072037;28;20227;-72
2021/03/29 04:03:19;;;;;;;2.45;1.65;;;3.20;97.80;;;;;;5073396;28;20215;-73
2021/03/29 04:05:45;;;;;;;4.10;1.13;;;3.20;97.60;;;;;;5071887;28;20225;-72
2021/03/29 04:08:11;;;;;;;1.63;1.52;;;3.20;97.30;;;;;;5073438;28;20578;-70
2021/03/29 04:10:43;;;;;;;1.48;1.25;;;3.20;97.40;;;;;;5073298;28;20203;-71
2021/03/29 04:13:14;;;;;;;2.08;1.88;;;3.00;97.50;;;;;;5073275;28;20185;-72
2021/03/29 04:15:40;;;;;;;0.82;0.80;;;2.90;97.80;;;;;;5072213;28;20658;-72
2021/03/29 04:18:06;;;;;;;2.13;1.70;;;3.00;98.10;;;;;;5073284;28;20200;-71
2021/03/29 04:20:32;;;;;;;1.93;1.17;;;3.10;98.00;;;;;;5073074;28;20195;-71
2021/03/29 04:22:58;;;;;;;3.40;1.10;;;3.10;97.70;;;;;;5072952;28;20451;-72
2021/03/29 04:25:24;;;;;;;1.63;1.40;;;3.20;97.50;;;;;;5073209;28;20210;-71
2021/03/29 04:27:50;;;;;;;3.50;1.98;;;3.20;97.70;;;;;;5073278;28;20399;-72
2021/03/29 04:30:16;;;;;;;1.57;1.47;;;3.20;97.60;;;;;;5072865;28;20254;-72
2021/03/29 04:32:46;;;;;;;1.53;1.30;;;3.30;97.40;;;;;;5072975;28;20189;-72
2021/03/29 04:35:12;;;;;;;1.05;1.05;;;3.20;97.10;;;;;;5073044;28;20400;-71
2021/03/29 04:37:38;;;;;;;1.13;1.13;;;3.10;97.30;;;;;;5073439;28;20194;-71
2021/03/29 04:40:04;;;;;;;1.40;1.30;;;3.20;97.20;;;;;;5072884;28;20681;-72
2021/03/29 04:42:30;;;;;;;1.90;1.73;;;3.30;97.20;;;;;;5072999;28;20285;-72
2021/03/29 04:44:55;;;;;;;3.90;1.93;;;3.30;97.20;;;;;;5072876;28;20211;-71
2021/03/29 04:47:21;;;;;;;1.63;1.40;;;3.20;97.00;;;;;;5072971;28;20198;-71
2021/03/29 04:49:47;;;;;;;2.30;1.23;;;3.00;97.40;;;;;;5072624;28;20522;-72
2021/03/29 04:52:12;;;;;;;0.90;0.90;;;3.00;97.50;;;;;;5072773;28;20281;-72
2021/03/29 04:54:38;;;;;;;1.37;1.27;;;3.00;97.60;;;;;;5073112;28;20169;-72
2021/03/29 04:57:04;;;;;;;1.70;1.60;;;3.00;97.60;;;;;;5072877;28;20219;-72
2021/03/29 04:59:30;;;;;;;1.30;1.00;;;3.00;97.50;;;;;;5072626;28;20255;-72
2021/03/29 05:01:56;;;;;;;2.70;1.73;;;3.10;97.30;;;;;;5072889;28;20264;-72
2021/03/29 05:04:21;;;;;;;1.90;1.27;;;3.10;97.30;;;;;;5072755;28;20465;-72
2021/03/29 05:06:47;;;;;;;2.40;1.83;;;3.10;97.20;;;;;;5072902;28;20196;-72
2021/03/29 05:09:12;;;;;;;3.17;1.23;;;3.10;97.20;;;;;;5076248;28;20172;-71
2021/03/29 05:11:56;;;;;;;1.13;1.03;;;3.10;97.30;;;;;;5076358;28;20512;-72
2021/03/29 05:14:22;;;;;;;8.25;1.27;;;3.10;97.30;;;;;;5076274;28;20150;-71
2021/03/29 05:16:48;;;;;;;1.53;1.10;;;3.10;97.20;;;;;;5076467;28;20174;-72
2021/03/29 05:19:14;;;;;;;4.53;1.50;;;2.90;97.20;;;;;;5076184;28;20204;-71
2021/03/29 05:21:40;;;;;;;1.30;1.20;;;2.90;97.40;;;;;;5076108;28;20185;-71
2021/03/29 05:24:07;;;;;;;1.20;1.20;;;3.00;97.60;;;;;;5076143;28;20530;-71
2021/03/29 05:26:34;;;;;;;1.35;1.17;;;3.00;97.60;;;;;;5076224;28;20229;-72
2021/03/29 05:28:59;;;;;;;2.78;1.17;;;3.00;97.40;;;;;;5075920;28;20219;-71
2021/03/29 05:31:25;;;;;;;1.50;1.40;;;3.10;97.40;;;;;;5075936;28;20258;-73
2021/03/29 05:33:51;;;;;;;1.40;1.30;;;3.30;97.20;;;;;;5075845;28;20191;-72
2021/03/29 05:36:17;;;;;;;2.88;1.55;;;3.40;96.90;;;;;;5076200;28;20176;-72
2021/03/29 05:38:45;;;;;;;2.30;1.60;;;3.50;96.40;;;;;;5075731;28;20175;-72
2021/03/29 05:41:12;;;;;;;4.20;1.80;;;3.30;96.30;;;;;;5075979;28;20400;-72
2021/03/29 05:43:40;;;;;;;1.40;1.25;;;3.40;96.20;;;;;;5075656;28;20197;-71
2021/03/29 05:46:06;;;;;;;1.70;1.60;;;3.40;96.00;;;;;;5075629;28;20692;-73
2021/03/29 05:48:32;;;;;;;1.50;1.40;;;3.50;95.50;;;;;;5075754;28;20185;-71
2021/03/29 05:51:07;;;;;;;1.40;1.30;;;3.60;95.50;;;;;;5075486;28;20491;-71
2021/03/29 05:53:36;;;;;;;3.03;1.60;;;3.80;95.20;;;;;;5074855;28;20439;-72
2021/03/29 05:56:03;;;;;;;2.47;1.45;;;3.90;95.00;;;;;;5075587;28;20696;-72
2021/03/29 06:00:55;;;;;;;1.48;1.38;;;4.10;94.70;;;;;;5075337;28;20704;-72
2021/03/29 06:03:24;;;;;;;2.58;2.35;;;4.30;94.30;;;;;;5075345;28;20251;-72
2021/03/29 06:05:52;;;;;;;2.58;2.30;;;4.50;93.40;;;;;;5075423;28;20332;-72
2021/03/29 06:08:19;;;;;;;2.13;1.90;;;4.60;93.00;;;;;;5075461;28;20176;-72
2021/03/29 06:10:45;;;;;;;1.80;1.70;;;4.60;93.00;;;;;;5074981;28;20210;-72
2021/03/29 06:13:17;;;;;;;1.55;1.35;;;4.70;92.60;;;;;;5075098;28;20196;-72
2021/03/29 06:15:45;;;;;;;1.80;1.67;;;4.80;92.60;;;;;;5075399;28;20170;-71
2021/03/29 06:18:15;;;;;;;2.15;1.40;;;4.90;92.60;;;;;;5074913;28;20177;-71
2021/03/29 06:21:16;;;;;;;4.55;1.52;;;5.10;92.30;;;;;;5074359;28;20223;-72
2021/03/29 06:23:58;;;;;;;1.50;1.40;;;5.20;91.40;;;;;;5052855;28;20651;-71
2021/03/29 06:26:29;;;;;;;1.73;1.63;;;5.30;91.40;;;;;;5073202;28;20205;-71
2021/03/29 06:28:55;;;;;;;1.70;1.38;;;5.40;90.40;;;;;;5074874;28;20166;-71
2021/03/29 06:31:31;;;;;;;2.83;1.63;;;5.40;90.20;;;;;;5074857;28;20173;-72
2021/03/29 06:33:58;;;;;;;2.10;1.80;;;5.50;89.40;;;;;;5074662;28;20423;-71
2021/03/29 06:36:38;;;;;;;1.80;1.52;;;5.60;86.70;;;;;;5074772;28;20197;-70
2021/03/29 06:39:17;;;;;;;3.75;1.70;;;5.90;87.20;;;;;;5073219;28;20668;-71
2021/03/29 06:42:01;;;;;;;4.63;1.92;;;6.80;84.30;;;;;;5074755;28;20237;-73
2021/03/29 06:44:32;;;;;;;2.10;2.00;;;8.00;81.20;;;;;;5074766;28;20188;-73
2021/03/29 06:47:11;;;;;;;1.63;1.52;;;9.20;77.50;;;;;;5074676;28;20202;-72
2021/03/29 06:49:44;;;;;;;2.47;2.27;;;10.50;71.10;;;;;;5074385;28;20244;-71
2021/03/29 06:52:31;;;;;;;2.30;2.10;;;11.70;64.00;;;;;;5074451;28;20493;-72
2021/03/29 06:55:16;;;;;;;3.57;2.30;;;13.10;56.80;;;;;;5074338;28;20470;-72
2021/03/29 06:57:42;;;;;;;5.37;2.70;;;14.20;54.00;;;;;;5074349;28;20391;-72
2021/03/29 07:00:28;;;;;;;2.57;1.60;;;15.30;51.20;;;;;;5074159;28;20478;-73
2021/03/29 07:02:57;;;;;;;3.27;1.67;;;16.50;48.10;;;;;;5074402;28;20456;-72
2021/03/29 07:05:23;;;;;;;2.23;2.03;;;17.50;44.20;;;;;;5073986;28;20401;-71
2021/03/29 07:07:48;;;;;;;2.00;1.50;;;18.80;41.30;;;;;;5074592;28;20407;-73
2021/03/29 07:10:14;;;;;;;4.00;2.90;;;20.20;38.50;;;;;;5073943;28;20173;-73
2021/03/29 07:12:42;;;;;;;6.80;3.33;;;21.60;37.10;;;;;;5074199;28;20252;-73
2021/03/29 07:15:10;;;;;;;13.00;2.53;;;22.80;35.80;;;;;;5073988;28;20407;-73
2021/03/29 07:17:38;;;;;;;1.87;1.77;;;23.80;34.10;;;;;;5074063;28;20448;-72
2021/03/29 07:20:06;;;;;;;3.30;2.20;;;25.00;30.70;;;;;;5073742;28;20474;-71
2021/03/29 07:22:35;;;;;;;2.50;2.30;;;26.00;29.50;;;;;;5073814;28;20455;-73
2021/03/29 07:25:08;;;;;;;4.70;2.17;;;26.90;28.40;;;;;;5073908;28;20912;-71
2021/03/29 07:27:40;;;;;;;4.20;3.47;;;27.50;27.60;;;;;;5074021;28;20489;-71
2021/03/29 07:30:06;;;;;;;3.30;1.80;;;27.80;26.90;;;;;;5073442;28;20465;-73
2021/03/29 07:32:34;;;;;;;2.73;2.53;;;28.10;24.70;;;;;;5073822;28;20838;-72
2021/03/29 07:35:01;;;;;;;1.83;1.73;;;28.50;25.00;;;;;;5073773;28;20394;-74
2021/03/29 07:37:39;;;;;;;3.43;1.60;;;28.80;24.50;;;;;;5074014;28;20390;-72
2021/03/29 07:40:28;;;;;;;3.70;2.10;;;29.30;23.00;;;;;;5073416;28;20403;-72
2021/03/29 07:43:08;;;;;;;5.83;5.23;;;29.50;23.50;;;;;;5069412;28;20447;-73
2021/03/29 07:45:33;;;;;;;7.20;4.40;;;29.80;23.90;;;;;;5073694;28;20447;-72
2021/03/29 07:47:59;;;;;;;8.90;4.57;;;30.10;23.90;;;;;;5072332;28;20916;-71
2021/03/29 07:50:25;;;;;;;4.70;3.33;;;30.50;23.80;;;;;;5073283;28;20174;-73
2021/03/29 07:52:52;;;;;;;5.27;2.80;;;30.70;24.30;;;;;;5073424;28;20190;-72
2021/03/29 07:55:28;;;;;;;5.23;3.07;;;31.10;24.00;;;;;;5073791;28;20619;-73
2021/03/29 07:57:57;;;;;;;12.30;3.20;;;31.40;23.10;;;;;;5073123;28;20453;-74
2021/03/29 08:00:22;;;;;;;3.97;2.70;;;31.40;23.10;;;;;;5073266;28;20934;-71
2021/03/29 08:02:48;;;;;;;3.30;2.47;;;31.40;22.80;;;;;;5073153;28;20514;-71
2021/03/29 08:05:15;;;;;;;7.23;3.13;;;31.90;22.90;;;;;;5073185;28;20303;-70
2021/03/29 08:07:44;;;;;;;4.50;2.60;;;32.00;21.90;;;;;;5073150;28;20399;-71
2021/03/29 08:10:12;;;;;;;4.17;3.10;;;32.30;21.70;;;;;;5073115;28;20441;-70
2021/03/29 08:12:59;;;;;;;4.30;2.73;;;32.80;21.90;;;;;;5073459;28;20430;-70
2021/03/29 08:16:03;;;;;;;1.83;1.73;;;33.40;22.00;;;;;;5073014;28;20939;-72
2021/03/29 08:18:29;;;;;;;2.33;1.77;;;33.50;21.30;;;;;;5073239;28;20411;-72
2021/03/29 08:20:54;;;;;;;2.03;1.87;;;33.80;20.90;;;;;;5072995;28;20396;-72
2021/03/29 08:23:34;;;;;;;2.73;2.20;;;34.40;21.70;;;;;;5073101;28;20194;-71
2021/03/29 08:26:16;;;;;;;2.47;2.00;;;35.10;20.50;;;;;;5073035;28;20201;-70
2021/03/29 08:29:07;;;;;;;4.80;2.60;;;35.40;19.40;;;;;;5073146;28;20400;-71
2021/03/29 08:32:00;;;;;;;2.47;1.97;;;35.40;19.10;;;;;;5073254;28;20411;-70
2021/03/29 08:34:30;;;;;;;1.53;1.40;;;35.80;19.50;;;;;;5072956;28;20496;-71
2021/03/29 08:37:06;;;;;;;2.10;2.00;;;35.80;18.40;;;;;;5072989;28;20438;-72
2021/03/29 08:39:53;;;;;;;2.10;1.90;;;35.40;18.60;;;;;;5072784;28;20411;-70
2021/03/29 08:42:22;;;;;;;2.87;2.50;;;34.40;19.20;;;;;;5074089;28;20515;-71
2021/03/29 08:44:50;;;;;;;2.73;1.73;;;34.30;18.80;;;;;;5076747;28;20408;-71
2021/03/29 08:47:23;;;;;;;2.70;1.50;;;34.20;19.70;;;;;;5077177;28;20871;-71
2021/03/29 08:50:00;;;;;;;2.10;1.30;;;33.60;18.90;;;;;;5076748;28;20760;-71
2021/03/29 08:52:37;;;;;;;1.47;1.33;;;33.40;18.80;;;;;;5076723;28;20427;-70
2021/03/29 08:55:03;;;;;;;1.43;0.90;;;32.60;19.00;;;;;;5076909;28;20894;-71
2021/03/29 08:57:31;;;;;;;1.43;1.33;;;32.70;18.60;;;;;;5076606;28;20900;-71
2021/03/29 09:00:04;;;;;;;2.37;1.43;;;33.00;19.30;;;;;;5076669;28;20437;-71
2021/03/29 09:02:29;;;;;;;3.43;1.33;;;32.50;19.50;;;;;;5076712;28;20907;-70
2021/03/29 09:04:58;;;;;;;1.30;1.20;;;33.10;19.40;;;;;;5076595;28;20440;-71
2021/03/29 09:07:37;;;;;;;1.30;1.20;;;33.80;19.60;;;;;;5076630;28;20201;-72
2021/03/29 09:10:14;;;;;;;2.73;1.30;;;33.60;18.70;;;;;;5076438;28;20773;-70
2021/03/29 09:12:40;;;;;;;2.13;1.80;;;32.80;18.60;;;;;;5076458;28;20442;-70
2021/03/29 09:15:12;;;;;;;4.90;1.43;;;32.90;18.90;;;;;;5076497;28;20408;-72
2021/03/29 09:17:38;;;;;;;1.93;1.80;;;33.40;18.00;;;;;;5075100;28;20231;-71
2021/03/29 09:20:04;;;;;;;2.60;1.30;;;34.20;17.90;;;;;;5076202;28;20439;-71
2021/03/29 09:22:36;;;;;;;1.50;1.40;;;34.30;18.40;;;;;;5076034;28;20772;-70
2021/03/29 09:25:04;;;;;;;2.13;1.50;;;33.00;17.10;;;;;;5076368;28;20404;-71
2021/03/29 09:27:33;;;;;;;1.80;1.37;;;32.30;17.50;;;;;;5076008;28;20451;-72
2021/03/29 09:30:00;;;;;;;1.30;1.20;;;31.80;18.70;;;;;;5075975;28;20400;-71
2021/03/29 09:32:30;;;;;;;1.10;1.00;;;31.20;17.90;;;;;;5076001;28;20511;-70
2021/03/29 09:34:57;;;;;;;1.70;1.60;;;30.70;18.00;;;;;;5075880;28;20913;-71
2021/03/29 09:37:23;;;;;;;0.93;0.90;;;30.80;17.70;;;;;;5076083;28;20491;-71
2021/03/29 09:40:00;;;;;;;1.70;1.47;;;31.30;17.90;;;;;;5075710;28;20407;-71
2021/03/29 09:42:43;;;;;;;2.30;1.27;;;31.20;17.50;;;;;;5076109;28;20477;-72
2021/03/29 09:45:22;;;;;;;2.37;1.17;;;32.20;16.50;;;;;;5075737;28;20475;-71
2021/03/29 09:48:07;;;;;;;2.23;0.90;;;32.30;16.40;;;;;;5075979;28;20419;-72
2021/03/29 09:50:38;;;;;;;1.70;1.40;;;32.70;17.00;;;;;;5075610;28;20400;-73
2021/03/29 09:53:17;;;;;;;4.03;1.10;;;32.40;16.80;;;;;;5074370;28;20964;-72
2021/03/29 09:55:51;;;;;;;1.37;0.87;;;31.80;17.40;;;;;;5075543;28;20909;-71
2021/03/29 09:58:25;;;;;;;1.27;1.17;;;32.50;17.00;;;;;;5075775;28;20400;-71
2021/03/29 10:00:53;;;;;;;1.17;0.80;;;32.50;16.90;;;;;;5075372;28;20479;-71
2021/03/29 10:03:20;;;;;;;1.37;0.90;;;32.20;17.00;;;;;;5075247;28;20834;-70
2021/03/29 10:05:47;;;;;;;1.80;1.00;;;32.00;16.80;;;;;;5074137;28;20451;-72
2021/03/29 10:08:30;;;;;;;4.03;1.87;;;31.20;17.50;;;;;;5075488;28;20459;-72
2021/03/29 10:11:06;;;;;;;0.93;0.90;;;30.60;17.60;;;;;;5074996;28;20970;-70
2021/03/29 10:13:34;;;;;;;2.27;1.27;;;30.10;17.30;;;;;;5073911;28;20485;-72
2021/03/29 10:16:20;;;;;;;2.13;1.17;;;29.80;18.30;;;;;;5075328;28;20404;-71
2021/03/29 10:18:47;;;;;;;1.57;1.30;;;30.60;18.50;;;;;;5074909;28;20503;-72
2021/03/29 10:21:13;;;;;;;1.53;1.43;;;30.60;17.70;;;;;;5074937;28;20462;-71
2021/03/29 10:23:42;;;;;;;1.10;1.00;;;29.70;18.00;;;;;;5074930;28;20796;-72
2021/03/29 10:26:11;;;;;;;2.23;1.53;;;28.40;18.50;;;;;;5074978;28;20475;-70
2021/03/29 10:28:37;;;;;;;1.40;1.30;;;28.00;20.40;;;;;;5075065;28;20873;-71
2021/03/29 10:31:03;;;;;;;2.40;1.30;;;28.30;19.80;;;;;;5074563;28;20878;-71
2021/03/29 10:33:28;;;;;;;1.40;1.10;;;28.20;19.30;;;;;;5074809;28;20438;-71
2021/03/29 10:35:54;;;;;;;1.10;1.00;;;28.10;20.30;;;;;;5075125;28;20173;-71
2021/03/29 10:38:21;;;;;;;1.47;1.37;;;28.30;20.00;;;;;;5075002;28;20265;-72
2021/03/29 10:40:47;;;;;;;1.23;1.13;;;28.80;19.90;;;;;;5074583;28;20530;-71
2021/03/29 10:43:13;;;;;;;0.93;0.90;;;28.50;19.20;;;;;;5073452;28;20432;-72
2021/03/29 10:45:38;;;;;;;2.57;2.37;;;27.50;19.40;;;;;;5074457;28;20647;-71
2021/03/29 10:48:04;;;;;;;2.53;1.67;;;27.10;21.30;;;;;;5074946;28;20178;-71
2021/03/29 10:50:30;;;;;;;1.20;1.00;;;26.90;20.90;;;;;;5074194;28;20177;-71
2021/03/29 10:52:56;;;;;;;1.30;1.20;;;26.60;20.10;;;;;;5074261;28;20181;-72
2021/03/29 10:55:22;;;;;;;1.30;1.20;;;26.00;21.60;;;;;;5074474;28;20386;-72
2021/03/29 10:57:48;;;;;;;1.23;0.90;;;25.30;20.60;;;;;;5074425;28;20174;-70
2021/03/29 11:00:14;;;;;;;1.23;1.00;;;24.70;21.20;;;;;;5074069;28;20389;-71
2021/03/29 11:02:40;;;;;;;1.43;1.33;;;24.60;21.40;;;;;;5074170;28;20260;-72
2021/03/29 11:05:07;;;;;;;1.20;1.00;;;24.70;21.00;;;;;;5073734;28;20448;-70
2021/03/29 11:07:32;;;;;;;1.00;1.00;;;24.10;19.00;;;;;;5074055;28;20208;-72
2021/03/29 11:09:58;;;;;;;1.73;1.63;;;23.50;20.80;;;;;;5073875;28;20407;-71
2021/03/29 11:12:24;;;;;;;1.87;0.90;;;23.10;21.00;;;;;;5074146;28;20669;-71
2021/03/29 11:14:49;;;;;;;1.43;1.00;;;22.60;21.50;;;;;;5073933;28;20173;-72
2021/03/29 11:17:17;;;;;;;1.57;1.40;;;22.20;21.30;;;;;;5073948;28;20225;-71
2021/03/29 11:19:42;;;;;;;1.47;1.30;;;21.90;24.80;;;;;;5073801;28;20177;-71
2021/03/29 11:22:08;;;;;;;1.47;1.37;;;21.80;25.90;;;;;;5073521;28;20547;-72
2021/03/29 11:24:33;;;;;;;2.30;1.30;;;21.50;25.80;;;;;;5073791;28;20169;-72
2021/03/29 11:26:59;;;;;;;1.93;1.17;;;21.30;26.60;;;;;;5073888;28;20338;-73
2021/03/29 11:29:25;;;;;;;1.30;1.20;;;21.00;27.00;;;;;;5073728;28;20173;-73
2021/03/29 11:31:50;;;;;;;2.40;1.10;;;20.80;30.00;;;;;;5073636;28;20173;-72
2021/03/29 11:34:17;;;;;;;2.40;1.57;;;20.50;27.20;;;;;;5073850;28;20182;-73
2021/03/29 11:36:43;;;;;;;2.70;2.00;;;20.30;26.90;;;;;;5073801;28;20350;-73
2021/03/29 11:39:10;;;;;;;4.27;1.00;;;20.10;26.20;;;;;;5073489;28;20828;-73
2021/03/29 11:41:36;;;;;;;1.73;1.40;;;19.90;25.50;;;;;;5073739;28;20456;-73
2021/03/29 11:44:03;;;;;;;1.17;0.83;;;19.60;26.70;;;;;;5073448;28;20468;-73
2021/03/29 11:46:29;;;;;;;1.00;0.97;;;19.70;26.40;;;;;;5072127;28;20663;-72
2021/03/29 11:48:54;;;;;;;2.40;1.60;;;19.60;27.50;;;;;;5073286;28;20468;-73
2021/03/29 11:51:20;;;;;;;1.40;1.40;;;19.40;28.50;;;;;;5073536;28;20420;-73
2021/03/29 11:53:46;;;;;;;2.63;1.40;;;19.50;27.90;;;;;;5073350;28;20195;-72
2021/03/29 11:56:12;;;;;;;2.63;1.53;;;19.40;29.50;;;;;;5073574;28;20224;-71
2021/03/29 11:58:37;;;;;;;1.60;1.50;;;19.30;28.90;;;;;;5073498;28;20179;-74
2021/03/29 12:01:24;;;;;;;1.23;1.13;;;19.20;28.50;;;;;;5073238;28;20197;-73
2021/03/29 12:04:04;;;;;;;2.10;1.53;;;19.10;28.80;;;;;;5072054;28;20202;-72
2021/03/29 12:06:55;;;;;;;4.27;1.33;;;19.20;29.20;;;;;;5073327;28;20452;-73
2021/03/29 12:14:18;;;;;;;2.03;1.27;;;19.30;30.40;;;;;;5073547;28;20399;-72
2021/03/29 12:16:46;;;;;;;1.53;1.20;;;19.50;28.90;;;;;;5073376;28;20407;-74
2021/03/29 12:19:14;;;;;;;1.20;1.10;;;19.60;28.50;;;;;;5077408;28;20624;-72
2021/03/29 12:21:40;;;;;;;3.67;1.00;;;19.30;32.50;;;;;;5077325;28;20807;-74
2021/03/29 12:24:13;;;;;;;1.80;1.23;;;19.10;31.40;;;;;;5077267;28;20410;-72
2021/03/29 12:26:40;;;;;;;2.33;1.33;;;19.20;29.30;;;;;;5077553;28;20889;-72
2021/03/29 12:29:09;;;;;;;4.77;0.90;;;19.30;27.10;;;;;;5077197;28;20418;-74
2021/03/29 12:31:40;;;;;;;2.00;1.10;;;19.50;27.10;;;;;;5077256;28;20914;-73
2021/03/29 12:34:07;;;;;;;1.53;1.47;;;19.70;25.20;;;;;;5076760;28;20423;-74
2021/03/29 12:36:39;;;;;;;1.53;1.07;;;19.80;26.90;;;;;;5075882;28;20425;-74
2021/03/29 12:39:29;;;;;;;2.00;1.10;;;19.90;27.30;;;;;;5077000;28;20825;-73
2021/03/29 12:41:59;;;;;;;1.33;1.20;;;20.10;28.10;;;;;;5076700;28;20419;-73
2021/03/29 12:44:27;;;;;;;6.43;1.37;;;20.10;25.70;;;;;;5076887;28;20485;-73
2021/03/29 12:46:55;;;;;;;2.10;0.97;;;20.10;26.10;;;;;;5076770;28;20449;-74
2021/03/29 12:49:22;;;;;;;1.23;1.13;;;19.90;25.50;;;;;;5076624;28;20410;-72
2021/03/29 12:51:54;;;;;;;1.33;1.20;;;20.00;25.90;;;;;;5076807;28;20410;-74
2021/03/29 12:54:26;;;;;;;2.57;2.00;;;20.10;27.90;;;;;;5076767;28;20471;-73
2021/03/29 12:56:52;;;;;;;1.33;1.23;;;19.90;25.80;;;;;;5076806;28;20881;-74
2021/03/29 12:59:19;;;;;;;1.30;1.20;;;19.90;23.50;;;;;;5076381;28;20407;-70
2021/03/29 13:01:46;;;;;;;1.87;1.37;;;20.00;26.60;;;;;;5076432;28;20466;-73
2021/03/29 13:04:57;;;;;;;1.27;1.17;;;19.90;26.80;;;;;;5076513;28;20905;-73
2021/03/29 13:12:27;;;;;;;1.43;1.20;;;19.90;30.30;;;;;;5072517;28;20486;-74
2021/03/29 13:15:06;;;;;;;2.80;1.43;;;19.70;24.30;;;;;;5076526;28;20407;-73
2021/03/29 13:17:40;;;;;;;1.80;1.30;;;19.60;23.60;;;;;;5076433;28;20497;-73
2021/03/29 13:20:11;;;;;;;2.67;1.80;;;19.70;26.30;;;;;;5076209;28;20491;-74